createdAt,value
2023-03-24T00:01:24.855Z,1.65
2023-03-24T00:03:53.358Z,1.27
2023-03-24T00:06:23.473Z,1.38
2023-03-24T00:08:51.850Z,1.50
2023-03-24T00:11:21.992Z,1.50
2023-03-24T00:13:51.113Z,1.30
2023-03-24T00:16:20.696Z,1.02
2023-03-24T00:18:54.267Z,1.48
2023-03-24T00:21:25.532Z,1.50
2023-03-24T00:23:56.140Z,1.33
2023-03-24T00:26:25.903Z,1.65
2023-03-24T00:28:55.182Z,1.27
2023-03-24T00:31:25.190Z,1.23
2023-03-24T00:33:54.584Z,1.33
2023-03-24T00:36:25.188Z,1.33
2023-03-24T00:38:54.719Z,1.30
2023-03-24T00:41:27.637Z,1.95
2023-03-24T00:43:59.237Z,1.50
2023-03-24T00:46:28.955Z,1.20
2023-03-24T00:49:03.336Z,1.50
2023-03-24T00:51:37.621Z,1.30
2023-03-24T00:54:07.480Z,1.73
2023-03-24T00:56:38.549Z,1.67
2023-03-24T00:59:06.991Z,1.83
2023-03-24T01:01:37.194Z,1.50
2023-03-24T01:04:07.133Z,1.80
2023-03-24T01:06:38.578Z,1.58
2023-03-24T01:09:08.129Z,1.30
2023-03-24T01:11:40.753Z,1.88
2023-03-24T01:14:10.455Z,1.50
2023-03-24T01:16:38.910Z,1.77
2023-03-24T01:19:09.928Z,1.27
2023-03-24T01:21:39.818Z,1.40
2023-03-24T01:24:09.178Z,1.40
2023-03-24T01:26:37.591Z,1.35
2023-03-24T01:29:06.826Z,1.30
2023-03-24T01:31:35.503Z,1.40
2023-03-24T01:34:04.281Z,1.13
2023-03-24T01:36:32.546Z,1.15
2023-03-24T01:39:02.054Z,1.35
2023-03-24T01:41:39.490Z,1.30
2023-03-24T01:44:33.161Z,1.20
2023-03-24T01:47:02.993Z,1.40
2023-03-24T01:49:38.031Z,1.50
2023-03-24T01:52:12.220Z,1.40
2023-03-24T01:54:45.702Z,1.55
2023-03-24T01:57:21.664Z,1.35
2023-03-24T01:59:53.865Z,1.83
2023-03-24T02:02:23.050Z,1.52
2023-03-24T02:05:00.186Z,1.27
2023-03-24T02:07:54.261Z,1.20
2023-03-24T02:10:24.672Z,1.27
2023-03-24T02:12:52.962Z,1.27
2023-03-24T02:15:23.606Z,1.38
2023-03-24T02:18:14.288Z,1.20
2023-03-24T02:21:06.828Z,1.33
2023-03-24T02:23:54.974Z,1.08
2023-03-24T02:26:50.747Z,1.10
2023-03-24T02:29:47.506Z,1.20
2023-03-24T02:33:02.942Z,1.27
2023-03-24T02:35:55.787Z,1.25
2023-03-24T02:38:35.283Z,0.80
2023-03-24T02:41:21.692Z,1.45
2023-03-24T02:44:08.375Z,1.60
2023-03-24T02:46:46.194Z,1.27
2023-03-24T02:49:23.998Z,1.10
2023-03-24T02:52:06.272Z,1.05
2023-03-24T02:54:55.767Z,1.10
2023-03-24T02:57:33.005Z,0.88
2023-03-24T03:00:14.777Z,1.00
2023-03-24T03:02:59.731Z,0.90
2023-03-24T03:08:00.080Z,1.02
2023-03-24T03:10:36.352Z,1.10
2023-03-24T03:13:12.288Z,1.58
2023-03-24T03:15:46.257Z,1.25
2023-03-24T03:18:34.904Z,1.13
2023-03-24T03:21:10.005Z,1.40
2023-03-24T03:23:47.336Z,1.70
2023-03-24T03:26:20.550Z,1.20
2023-03-24T03:28:58.569Z,1.30
2023-03-24T03:31:37.443Z,1.10
2023-03-24T03:34:38.669Z,1.40
2023-03-24T03:37:17.567Z,1.38
2023-03-24T03:39:54.042Z,1.00
2023-03-24T03:42:23.106Z,1.40
2023-03-24T03:44:51.623Z,1.40
2023-03-24T03:47:22.137Z,1.17
2023-03-24T03:49:51.838Z,1.23
2023-03-24T03:52:20.815Z,1.30
2023-03-24T03:54:50.334Z,1.30
2023-03-24T03:57:21.341Z,1.20
2023-03-24T03:59:49.589Z,1.60
2023-03-24T04:02:43.022Z,1.30
2023-03-24T04:05:47.061Z,1.38
2023-03-24T04:08:49.038Z,1.38
2023-03-24T04:11:32.445Z,1.40
2023-03-24T04:14:45.799Z,1.40
2023-03-24T04:17:31.782Z,1.30
2023-03-24T04:20:21.196Z,1.60
2023-03-24T04:22:59.349Z,1.65
2023-03-24T04:25:30.632Z,1.52
2023-03-24T04:28:07.713Z,1.35
2023-03-24T04:30:45.458Z,1.23
2023-03-24T04:33:24.056Z,1.63
2023-03-24T04:36:07.236Z,1.73
2023-03-24T04:38:39.108Z,1.42
2023-03-24T04:41:08.289Z,1.48
2023-03-24T04:43:39.173Z,1.70
2023-03-24T04:46:10.169Z,1.60
2023-03-24T04:48:38.509Z,1.75
2023-03-24T04:51:09.407Z,1.83
2023-03-24T04:53:37.938Z,1.83
2023-03-24T04:56:29.751Z,1.70
2023-03-24T04:58:59.585Z,1.70
2023-03-24T05:01:31.033Z,1.60
2023-03-24T05:04:00.526Z,1.70
2023-03-24T05:06:28.971Z,1.30
2023-03-24T05:08:59.774Z,1.50
2023-03-24T05:11:28.532Z,1.50
2023-03-24T05:13:56.811Z,1.35
2023-03-24T05:16:25.035Z,1.30
2023-03-24T05:18:53.241Z,1.42
2023-03-24T05:21:21.564Z,1.42
2023-03-24T05:23:49.821Z,1.35
2023-03-24T05:26:18.098Z,1.30
2023-03-24T05:28:46.526Z,1.23
2023-03-24T05:31:14.827Z,1.05
2023-03-24T05:33:43.058Z,1.40
2023-03-24T05:36:12.273Z,1.35
2023-03-24T05:38:40.824Z,1.50
2023-03-24T05:41:09.440Z,1.40
2023-03-24T05:43:37.687Z,1.60
2023-03-24T05:46:06.117Z,1.45
2023-03-24T05:48:34.396Z,1.50
2023-03-24T05:51:02.860Z,1.52
2023-03-24T05:53:31.933Z,1.60
2023-03-24T05:56:00.399Z,1.67
2023-03-24T05:58:28.616Z,1.65
2023-03-24T06:00:57.971Z,1.17
2023-03-24T06:03:26.338Z,1.48
2023-03-24T06:05:54.653Z,1.73
2023-03-24T06:08:22.860Z,1.40
2023-03-24T06:10:51.192Z,1.13
2023-03-24T06:13:19.370Z,1.52
2023-03-24T06:15:48.876Z,1.35
2023-03-24T06:18:17.249Z,1.20
2023-03-24T06:20:45.952Z,1.38
2023-03-24T06:23:14.164Z,1.20
2023-03-24T06:25:45.477Z,1.35
2023-03-24T06:28:15.057Z,1.10
2023-03-24T06:30:45.957Z,1.23
2023-03-24T06:33:15.582Z,1.35
2023-03-24T06:35:44.409Z,1.30
2023-03-24T06:38:12.852Z,1.17
2023-03-24T06:40:41.057Z,1.02
2023-03-24T06:43:09.303Z,1.10
2023-03-24T06:45:40.320Z,1.38
2023-03-24T06:48:08.641Z,1.38
2023-03-24T06:50:40.006Z,1.65
2023-03-24T06:53:09.381Z,1.45
2023-03-24T06:55:37.935Z,1.35
2023-03-24T06:58:06.293Z,1.80
2023-03-24T07:00:35.828Z,1.35
2023-03-24T07:03:04.341Z,1.58
2023-03-24T07:05:34.571Z,1.70
2023-03-24T07:08:27.841Z,1.52
2023-03-24T07:10:52.026Z,1.83
2023-03-24T07:13:20.257Z,1.40
2023-03-24T07:15:48.472Z,1.38
2023-03-24T07:18:16.898Z,1.98
2023-03-24T07:20:45.520Z,2.58
2023-03-24T07:23:14.591Z,1.55
2023-03-24T07:25:46.153Z,1.60
2023-03-24T07:28:14.376Z,2.03
2023-03-24T07:30:42.631Z,1.92
2023-03-24T07:33:12.938Z,2.08
2023-03-24T07:35:41.700Z,2.00
2023-03-24T07:38:11.022Z,1.80
2023-03-24T07:40:39.372Z,1.98
2023-03-24T07:43:07.695Z,2.05
2023-03-24T07:45:36.125Z,1.92
2023-03-24T07:48:04.490Z,2.47
2023-03-24T07:50:33.734Z,1.80
2023-03-24T07:53:02.067Z,2.00
2023-03-24T07:55:30.640Z,2.10
2023-03-24T07:57:58.973Z,2.40
2023-03-24T08:00:27.233Z,2.17
2023-03-24T08:02:55.886Z,2.20
2023-03-24T08:05:25.640Z,2.05
2023-03-24T08:07:57.973Z,2.55
2023-03-24T08:10:28.786Z,2.00
2023-03-24T08:12:58.295Z,2.35
2023-03-24T08:15:28.292Z,2.08
2023-03-24T08:17:57.577Z,2.22
2023-03-24T08:20:27.948Z,1.90
2023-03-24T08:22:56.811Z,2.20
2023-03-24T08:25:27.595Z,2.25
2023-03-24T08:27:56.173Z,2.38
2023-03-24T08:30:26.483Z,2.25
2023-03-24T08:33:03.417Z,2.10
2023-03-24T08:35:39.469Z,2.17
2023-03-24T08:38:10.234Z,2.10
2023-03-24T08:40:39.998Z,2.00
2023-03-24T08:43:09.786Z,2.15
2023-03-24T08:45:38.632Z,2.00
2023-03-24T08:48:08.892Z,2.53
2023-03-24T08:50:40.252Z,2.35
2023-03-24T08:53:09.553Z,2.15
2023-03-24T08:55:42.414Z,1.80
2023-03-24T08:58:15.886Z,1.83
2023-03-24T09:00:45.530Z,1.90
2023-03-24T09:03:23.136Z,2.33
2023-03-24T09:05:51.871Z,1.95
2023-03-24T09:08:21.038Z,2.08
2023-03-24T09:10:49.553Z,1.55
2023-03-24T09:13:18.749Z,1.92
2023-03-24T09:15:49.691Z,1.90
2023-03-24T09:18:18.974Z,1.88
2023-03-24T09:20:48.016Z,1.70
2023-03-24T09:23:17.072Z,2.50
2023-03-24T09:25:46.013Z,2.00
2023-03-24T09:28:15.809Z,1.65
2023-03-24T09:30:45.072Z,1.90
2023-03-24T09:33:13.803Z,1.77
2023-03-24T09:35:42.801Z,2.10
2023-03-24T09:38:13.010Z,2.28
2023-03-24T09:40:43.453Z,2.00
2023-03-24T09:43:23.988Z,1.90
2023-03-24T09:45:57.935Z,2.35
2023-03-24T09:48:49.257Z,2.25
2023-03-24T09:51:25.574Z,2.10
2023-03-24T09:54:02.690Z,1.77
2023-03-24T09:56:33.732Z,1.88
2023-03-24T09:59:17.518Z,1.90
2023-03-24T10:01:46.369Z,2.30
2023-03-24T10:04:22.582Z,2.13
2023-03-24T10:06:58.279Z,2.50
2023-03-24T10:09:36.263Z,2.30
2023-03-24T10:12:27.121Z,2.15
2023-03-24T10:15:30.944Z,1.95
2023-03-24T10:18:19.044Z,1.98
2023-03-24T10:21:18.698Z,1.77
2023-03-24T10:23:49.596Z,2.22
2023-03-24T10:26:17.794Z,1.38
2023-03-24T10:28:57.790Z,1.65
2023-03-24T10:31:37.515Z,1.80
2023-03-24T10:34:06.204Z,1.60
2023-03-24T10:36:34.839Z,1.88
2023-03-24T10:39:12.913Z,2.38
2023-03-24T10:41:47.196Z,2.08
2023-03-24T10:44:15.977Z,1.45
2023-03-24T10:46:50.785Z,2.05
2023-03-24T10:51:54.934Z,2.03
2023-03-24T10:54:28.452Z,1.58
2023-03-24T10:57:00.071Z,2.10
2023-03-24T10:59:33.905Z,1.45
2023-03-24T11:02:11.118Z,2.30
2023-03-24T11:04:41.404Z,2.03
2023-03-24T11:07:19.885Z,2.05
2023-03-24T11:09:58.937Z,1.52
2023-03-24T11:12:30.154Z,2.03
2023-03-24T11:15:24.038Z,1.70
2023-03-24T11:17:58.595Z,1.58
2023-03-24T11:20:38.073Z,1.60
2023-03-24T11:23:15.078Z,1.70
2023-03-24T11:25:45.838Z,2.15
2023-03-24T11:28:20.154Z,1.95
2023-03-24T11:30:51.418Z,1.70
2023-03-24T11:33:36.092Z,2.00
2023-03-24T11:39:21.176Z,1.90
2023-03-24T11:42:02.568Z,1.52
2023-03-24T11:44:42.850Z,1.83
2023-03-24T11:47:34.602Z,1.77
2023-03-24T11:50:11.825Z,1.70
2023-03-24T11:53:23.369Z,1.80
2023-03-24T11:56:17.477Z,2.15
2023-03-24T11:59:00.204Z,1.83
2023-03-24T12:01:34.068Z,1.65
2023-03-24T12:04:30.431Z,1.40
2023-03-24T12:07:08.784Z,1.83
2023-03-24T12:09:46.871Z,1.80
2023-03-24T12:12:43.278Z,1.50
2023-03-24T12:15:27.374Z,1.40
2023-03-24T12:20:39.497Z,1.38
2023-03-24T12:23:36.961Z,1.45
2023-03-24T12:26:30.171Z,1.92
2023-03-24T12:29:38.331Z,1.70
2023-03-24T12:32:24.512Z,1.58
2023-03-24T12:35:22.349Z,1.55
2023-03-24T12:37:59.041Z,1.73
2023-03-24T12:41:08.704Z,1.70
2023-03-24T12:43:59.811Z,1.65
2023-03-24T12:46:53.790Z,1.70
2023-03-24T12:49:49.043Z,1.60
2023-03-24T12:53:06.745Z,1.73
2023-03-24T12:55:50.391Z,2.00
2023-03-24T12:58:36.211Z,1.90
2023-03-24T13:01:22.743Z,2.10
2023-03-24T13:04:09.809Z,1.67
2023-03-24T13:06:54.030Z,1.73
2023-03-24T13:10:00.225Z,1.87
2023-03-24T13:13:01.807Z,1.50
2023-03-24T13:15:42.659Z,1.67
2023-03-24T13:18:19.524Z,1.80
2023-03-24T13:20:57.728Z,2.05
2023-03-24T13:23:46.789Z,2.10
2023-03-24T13:26:40.743Z,1.95
2023-03-24T13:29:47.919Z,1.50
2023-03-24T13:32:26.223Z,1.70
2023-03-24T13:35:06.804Z,1.45
2023-03-24T13:37:39.919Z,1.70
2023-03-24T13:40:16.692Z,1.73
2023-03-24T13:42:49.353Z,1.73
2023-03-24T13:45:53.916Z,1.90
2023-03-24T13:48:34.602Z,1.75
2023-03-24T13:51:06.157Z,1.80
2023-03-24T13:53:36.880Z,2.13
2023-03-24T13:56:08.223Z,1.65
2023-03-24T13:59:00.821Z,2.15
2023-03-24T14:01:39.502Z,1.77
2023-03-24T14:04:19.985Z,2.42
2023-03-24T14:06:59.831Z,1.98
2023-03-24T14:09:30.438Z,2.13
2023-03-24T14:12:05.792Z,1.58
2023-03-24T14:15:13.828Z,2.45
2023-03-24T14:17:50.634Z,1.77
2023-03-24T14:20:34.441Z,1.90
2023-03-24T14:23:05.021Z,2.03
2023-03-24T14:25:35.180Z,1.63
2023-03-24T14:28:21.852Z,1.95
2023-03-24T14:31:16.983Z,1.80
2023-03-24T14:33:54.518Z,1.42
2023-03-24T14:36:45.117Z,1.52
2023-03-24T14:39:28.033Z,2.42
2023-03-24T14:41:59.039Z,1.67
2023-03-24T14:44:53.209Z,2.03
2023-03-24T14:47:23.659Z,1.55
2023-03-24T14:49:56.490Z,1.90
2023-03-24T14:52:41.155Z,2.20
2023-03-24T14:55:20.329Z,1.95
2023-03-24T14:57:57.344Z,1.75
2023-03-24T15:00:45.490Z,2.08
2023-03-24T15:04:01.230Z,2.10
2023-03-24T15:06:29.979Z,2.03
2023-03-24T15:09:00.239Z,1.92
2023-03-24T15:11:34.628Z,2.05
2023-03-24T15:14:06.250Z,1.90
2023-03-24T15:16:38.898Z,2.30
2023-03-24T15:19:20.804Z,2.13
2023-03-24T15:21:51.564Z,2.08
2023-03-24T15:24:23.010Z,1.98
2023-03-24T15:26:55.041Z,2.28
2023-03-24T15:29:24.767Z,1.60
2023-03-24T15:31:53.219Z,1.88
2023-03-24T15:34:32.308Z,1.90
2023-03-24T15:37:04.389Z,1.85
2023-03-24T15:39:41.858Z,2.00
2023-03-24T15:42:18.929Z,1.80
2023-03-24T15:44:47.413Z,1.58
2023-03-24T15:47:25.588Z,2.03
2023-03-24T15:49:59.257Z,1.70
2023-03-24T15:52:37.155Z,1.60
2023-03-24T15:55:31.100Z,1.10
2023-03-24T15:58:02.665Z,1.27
2023-03-24T16:00:38.511Z,1.75
2023-03-24T16:03:07.946Z,1.45
2023-03-24T16:05:36.653Z,1.85
2023-03-24T16:08:26.633Z,1.75
2023-03-24T16:11:05.951Z,1.52
2023-03-24T16:13:34.628Z,1.25
2023-03-24T16:16:24.396Z,1.50
2023-03-24T16:18:53.232Z,1.70
2023-03-24T16:21:24.867Z,1.20
2023-03-24T16:23:55.006Z,1.42
2023-03-24T16:26:32.318Z,1.40
2023-03-24T16:29:18.112Z,1.35
2023-03-24T16:31:51.640Z,1.30
2023-03-24T16:34:23.824Z,1.30
2023-03-24T16:36:53.622Z,1.33
2023-03-24T16:39:24.773Z,1.63
2023-03-24T16:41:53.260Z,1.20
2023-03-24T16:44:22.433Z,1.30
2023-03-24T16:46:54.560Z,1.15
2023-03-24T16:49:24.577Z,1.20
2023-03-24T16:51:54.601Z,1.48
2023-03-24T16:54:23.019Z,0.88
2023-03-24T16:56:51.487Z,1.48
2023-03-24T16:59:20.592Z,1.27
2023-03-24T17:01:48.897Z,1.45
2023-03-24T17:04:23.204Z,1.52
2023-03-24T17:06:54.789Z,1.23
2023-03-24T17:09:24.421Z,1.45
2023-03-24T17:11:57.182Z,1.15
2023-03-24T17:14:25.448Z,1.60
2023-03-24T17:16:54.297Z,1.20
2023-03-24T17:19:25.162Z,1.33
2023-03-24T17:22:06.361Z,1.65
2023-03-24T17:24:42.538Z,1.20
2023-03-24T17:27:21.970Z,1.27
2023-03-24T17:29:50.415Z,1.02
2023-03-24T17:32:20.527Z,1.35
2023-03-24T17:34:50.428Z,1.17
2023-03-24T17:37:18.668Z,1.42
2023-03-24T17:39:49.741Z,1.20
2023-03-24T17:42:17.972Z,0.90
2023-03-24T17:44:46.449Z,0.93
2023-03-24T17:47:14.713Z,1.30
2023-03-24T17:49:43.556Z,1.10
2023-03-24T17:52:12.879Z,1.20
2023-03-24T17:54:41.175Z,1.48
2023-03-24T17:57:09.491Z,1.13
2023-03-24T17:59:38.712Z,0.88
2023-03-24T18:02:08.099Z,1.88
2023-03-24T18:04:36.346Z,1.85
2023-03-24T18:07:04.984Z,1.40
2023-03-24T18:09:33.852Z,1.48
2023-03-24T18:12:02.129Z,1.15
2023-03-24T18:14:30.411Z,1.50
2023-03-24T18:16:58.763Z,1.10
2023-03-24T18:19:27.438Z,1.25
2023-03-24T18:21:55.844Z,1.27
2023-03-24T18:24:26.413Z,1.20
2023-03-24T18:26:54.613Z,1.10
2023-03-24T18:29:23.899Z,1.20
2023-03-24T18:31:52.228Z,1.30
2023-03-24T18:34:20.581Z,1.20
2023-03-24T18:36:48.989Z,1.30
2023-03-24T18:39:17.737Z,1.38
2023-03-24T18:41:46.345Z,1.05
2023-03-24T18:44:15.713Z,1.23
2023-03-24T18:46:45.116Z,1.10
2023-03-24T18:49:16.612Z,1.40
2023-03-24T18:51:46.076Z,1.33
2023-03-24T18:54:14.920Z,1.10
2023-03-24T18:56:43.170Z,1.23
2023-03-24T18:59:12.625Z,1.25
2023-03-24T19:01:40.919Z,1.35
2023-03-24T19:04:10.154Z,1.20
2023-03-24T19:06:43.056Z,1.20
2023-03-24T19:09:19.121Z,1.30
2023-03-24T19:11:48.656Z,1.17
2023-03-24T19:14:16.978Z,1.33
2023-03-24T19:16:45.508Z,1.10
2023-03-24T19:19:13.750Z,1.20
2023-03-24T19:21:42.646Z,1.13
2023-03-24T19:24:11.048Z,0.93
2023-03-24T19:26:39.314Z,0.82
2023-03-24T19:29:07.596Z,0.65
2023-03-24T19:31:35.984Z,1.00
2023-03-24T19:34:04.383Z,0.95
2023-03-24T19:36:32.664Z,0.80
2023-03-24T19:39:02.716Z,0.75
2023-03-24T19:41:30.945Z,0.98
2023-03-24T19:43:59.221Z,0.82
2023-03-24T19:46:27.521Z,0.70
2023-03-24T19:48:55.722Z,1.10
2023-03-24T19:51:25.271Z,0.88
2023-03-24T19:53:53.487Z,0.75
2023-03-24T19:56:22.658Z,0.77
2023-03-24T19:58:51.068Z,0.80
2023-03-24T20:01:20.123Z,0.82
2023-03-24T20:03:48.576Z,0.80
2023-03-24T20:06:19.547Z,0.60
2023-03-24T20:08:48.052Z,0.80
2023-03-24T20:11:16.285Z,0.80
2023-03-24T20:13:44.488Z,0.80
2023-03-24T20:16:13.048Z,0.63
2023-03-24T20:18:41.273Z,0.80
2023-03-24T20:21:10.136Z,0.60
2023-03-24T20:23:38.416Z,0.88
2023-03-24T20:26:06.830Z,0.85
2023-03-24T20:28:35.096Z,0.68
2023-03-24T20:31:04.876Z,0.80
2023-03-24T20:33:33.591Z,0.95
2023-03-24T20:36:02.197Z,0.70
2023-03-24T20:38:30.476Z,0.60
2023-03-24T20:40:59.950Z,0.75
2023-03-24T20:43:28.252Z,0.45
2023-03-24T20:45:59.843Z,0.80
2023-03-24T20:48:28.335Z,0.65
2023-03-24T20:50:56.616Z,0.45
2023-03-24T20:53:25.702Z,0.70
2023-03-24T20:56:17.518Z,0.88
2023-03-24T20:58:46.744Z,0.80
2023-03-24T21:01:24.726Z,0.65
2023-03-24T21:03:55.616Z,0.70
2023-03-24T21:06:28.261Z,0.80
2023-03-24T21:08:58.613Z,0.60
2023-03-24T21:11:27.786Z,0.73
2023-03-24T21:13:56.174Z,0.73
2023-03-24T21:16:24.492Z,0.70
2023-03-24T21:18:54.904Z,0.50
2023-03-24T21:21:23.343Z,0.80
2023-03-24T21:23:53.521Z,0.90
2023-03-24T21:26:22.232Z,0.65
2023-03-24T21:28:50.828Z,0.52
2023-03-24T21:31:25.452Z,0.68
2023-03-24T21:33:55.298Z,0.52
2023-03-24T21:36:25.385Z,0.93
2023-03-24T21:38:54.904Z,1.05
2023-03-24T21:41:23.924Z,1.00
2023-03-24T21:43:54.860Z,0.68
2023-03-24T21:46:25.179Z,1.08
2023-03-24T21:48:59.884Z,0.75
2023-03-24T21:51:31.436Z,1.27
2023-03-24T21:54:04.280Z,0.95
2023-03-24T21:56:34.311Z,0.70
2023-03-24T21:59:03.118Z,1.05
2023-03-24T22:01:34.746Z,1.08
2023-03-24T22:04:04.254Z,0.80
2023-03-24T22:06:38.294Z,0.88
2023-03-24T22:09:08.029Z,0.68
2023-03-24T22:11:37.432Z,0.90
2023-03-24T22:14:05.722Z,0.90
2023-03-24T22:16:33.934Z,0.82
2023-03-24T22:19:02.435Z,1.05
2023-03-24T22:21:30.769Z,0.80
2023-03-24T22:23:59.029Z,0.80
2023-03-24T22:26:27.361Z,0.85
2023-03-24T22:28:57.004Z,0.70
2023-03-24T22:31:25.522Z,0.90
2023-03-24T22:33:54.619Z,0.90
2023-03-24T22:36:22.983Z,1.08
2023-03-24T22:38:51.218Z,0.90
2023-03-24T22:41:19.506Z,0.80
2023-03-24T22:43:47.694Z,1.40
2023-03-24T22:46:16.296Z,0.77
2023-03-24T22:48:44.583Z,1.23
2023-03-24T22:51:17.647Z,0.90
2023-03-24T22:53:49.316Z,0.80
2023-03-24T22:56:17.649Z,0.60
2023-03-24T22:58:46.284Z,1.20
2023-03-24T23:01:14.522Z,1.30
2023-03-24T23:03:42.970Z,1.13
2023-03-24T23:06:12.699Z,1.23
2023-03-24T23:08:41.063Z,1.15
2023-03-24T23:11:09.703Z,1.30
2023-03-24T23:13:39.593Z,1.13
2023-03-24T23:16:08.637Z,0.90
2023-03-24T23:18:37.002Z,1.27
2023-03-24T23:21:09.958Z,1.30
2023-03-24T23:23:39.508Z,1.00
2023-03-24T23:26:26.177Z,1.40
2023-03-24T23:28:55.075Z,0.90
2023-03-24T23:31:27.940Z,1.27
2023-03-24T23:33:58.256Z,1.00
2023-03-24T23:36:29.094Z,1.17
2023-03-24T23:38:57.494Z,1.20
2023-03-24T23:41:25.792Z,1.23
2023-03-24T23:43:54.675Z,1.15
2023-03-24T23:46:24.781Z,1.25
2023-03-24T23:48:53.446Z,1.00
2023-03-24T23:51:21.886Z,0.93
2023-03-24T23:53:50.145Z,1.48
2023-03-24T23:56:22.222Z,0.88
2023-03-24T23:58:50.520Z,0.88
